createdAt,value
2017-08-31T00:01:05.348Z,21.57
2017-08-31T00:03:32.861Z,29.77
2017-08-31T00:06:00.391Z,22.23
2017-08-31T00:08:27.906Z,24.20
2017-08-31T00:10:55.428Z,26.70
2017-08-31T00:13:22.982Z,27.47
2017-08-31T00:15:50.565Z,25.33
2017-08-31T00:18:18.068Z,28.40
2017-08-31T00:20:45.596Z,29.37
2017-08-31T00:23:13.114Z,26.87
2017-08-31T00:25:40.635Z,24.73
2017-08-31T00:28:08.163Z,25.83
2017-08-31T00:30:35.683Z,25.30
2017-08-31T00:33:03.277Z,26.07
2017-08-31T00:35:30.830Z,26.13
2017-08-31T00:37:58.347Z,28.43
2017-08-31T00:40:26.726Z,30.70
2017-08-31T00:42:54.274Z,25.27
2017-08-31T00:45:21.794Z,31.23
2017-08-31T00:47:49.316Z,27.07
2017-08-31T00:50:16.862Z,29.33
2017-08-31T00:52:44.386Z,28.37
2017-08-31T00:55:11.921Z,29.87
2017-08-31T00:57:39.470Z,37.00
2017-08-31T01:00:06.995Z,26.33
2017-08-31T01:02:34.500Z,26.80
2017-08-31T01:05:02.054Z,30.20
2017-08-31T01:07:29.574Z,31.13
2017-08-31T01:09:57.843Z,32.83
2017-08-31T01:12:25.375Z,31.80
2017-08-31T01:14:52.876Z,35.13
2017-08-31T01:17:20.394Z,35.40
2017-08-31T01:19:47.943Z,44.67
2017-08-31T01:22:15.466Z,39.33
2017-08-31T01:24:42.986Z,41.40
2017-08-31T01:27:10.515Z,48.37
2017-08-31T01:29:38.035Z,51.73
2017-08-31T01:32:05.540Z,53.33
2017-08-31T01:34:33.086Z,51.00
2017-08-31T01:37:00.632Z,60.23
2017-08-31T01:39:28.136Z,59.73
2017-08-31T01:41:55.667Z,69.03
2017-08-31T01:44:23.182Z,63.00
2017-08-31T01:46:50.683Z,73.53
2017-08-31T01:49:18.216Z,77.93
2017-08-31T01:51:45.739Z,68.50
2017-08-31T01:54:13.339Z,74.73
2017-08-31T01:56:40.881Z,66.93
2017-08-31T01:59:08.389Z,65.57
2017-08-31T02:01:36.030Z,69.87
2017-08-31T02:06:37.193Z,69.50
2017-08-31T02:09:04.705Z,77.30
2017-08-31T02:11:32.980Z,69.50
2017-08-31T02:14:00.514Z,61.00
2017-08-31T02:16:28.038Z,63.47
2017-08-31T02:18:55.540Z,55.90
2017-08-31T02:21:23.072Z,70.10
2017-08-31T02:23:50.708Z,72.07
2017-08-31T02:26:18.224Z,72.30
2017-08-31T02:28:45.824Z,91.40
2017-08-31T02:31:13.344Z,80.03
2017-08-31T02:33:40.856Z,85.97
2017-08-31T02:36:08.406Z,88.07
2017-08-31T02:38:36.698Z,100.77
2017-08-31T02:41:04.209Z,104.07
2017-08-31T02:43:31.744Z,87.90
2017-08-31T02:45:59.274Z,82.50
2017-08-31T02:48:26.793Z,102.30
2017-08-31T02:50:54.346Z,81.60
2017-08-31T02:53:21.858Z,99.27
2017-08-31T02:55:49.354Z,91.07
2017-08-31T02:58:16.902Z,93.70
2017-08-31T03:00:44.422Z,97.23
2017-08-31T03:03:11.928Z,97.63
2017-08-31T03:05:39.460Z,103.03
2017-08-31T03:08:06.960Z,96.73
2017-08-31T03:10:34.469Z,98.63
2017-08-31T03:13:02.223Z,93.10
2017-08-31T03:15:29.777Z,95.73
2017-08-31T03:17:57.294Z,95.87
2017-08-31T03:20:24.836Z,104.27
2017-08-31T03:22:52.350Z,96.30
2017-08-31T03:25:19.851Z,98.17
2017-08-31T03:27:47.398Z,105.00
2017-08-31T03:30:14.925Z,110.93
2017-08-31T03:32:42.427Z,111.70
2017-08-31T03:35:09.959Z,109.70
2017-08-31T03:37:37.478Z,91.67
2017-08-31T03:40:05.001Z,105.67
2017-08-31T03:42:32.547Z,108.47
2017-08-31T03:45:00.056Z,103.87
2017-08-31T03:47:28.356Z,113.87
2017-08-31T03:49:55.888Z,99.20
2017-08-31T03:52:24.165Z,103.40
2017-08-31T03:54:51.842Z,98.27
2017-08-31T03:57:19.395Z,105.43
2017-08-31T03:59:46.903Z,93.23
2017-08-31T04:02:14.411Z,107.97
2017-08-31T04:04:41.962Z,108.63
2017-08-31T04:07:09.463Z,104.07
2017-08-31T04:09:36.981Z,114.23
2017-08-31T04:12:04.663Z,102.30
2017-08-31T04:14:32.163Z,109.73
2017-08-31T04:16:59.683Z,113.83
2017-08-31T04:19:27.235Z,125.87
2017-08-31T04:21:54.744Z,127.70
2017-08-31T04:24:22.247Z,138.87
2017-08-31T04:26:49.784Z,156.03
2017-08-31T04:29:18.070Z,121.80
2017-08-31T04:31:45.576Z,172.53
2017-08-31T04:34:13.112Z,177.63
2017-08-31T04:36:40.624Z,164.50
2017-08-31T04:39:08.923Z,156.30
2017-08-31T04:41:36.472Z,147.93
2017-08-31T04:44:04.740Z,165.30
2017-08-31T04:46:33.051Z,136.27
2017-08-31T04:49:00.584Z,144.23
2017-08-31T04:51:28.860Z,144.17
2017-08-31T04:53:57.151Z,118.00
2017-08-31T04:56:24.699Z,95.00
2017-08-31T04:58:52.236Z,90.93
2017-08-31T05:01:19.750Z,77.33
2017-08-31T05:03:47.294Z,76.60
2017-08-31T05:06:14.810Z,80.10
2017-08-31T05:08:42.312Z,72.90
2017-08-31T05:11:09.858Z,70.60
2017-08-31T05:13:37.373Z,46.87
2017-08-31T05:16:04.885Z,40.57
2017-08-31T05:18:32.442Z,32.83
2017-08-31T05:20:59.975Z,35.27
2017-08-31T05:23:27.484Z,33.33
2017-08-31T05:25:55.017Z,31.10
2017-08-31T05:28:22.521Z,29.23
2017-08-31T05:30:50.038Z,33.90
2017-08-31T05:33:17.591Z,29.63
2017-08-31T05:35:45.110Z,32.53
2017-08-31T05:38:12.616Z,25.83
2017-08-31T05:40:40.144Z,20.77
2017-08-31T05:43:07.657Z,12.67
2017-08-31T05:45:35.169Z,16.43
2017-08-31T05:48:02.699Z,12.10
2017-08-31T05:50:30.210Z,13.77
2017-08-31T05:52:57.707Z,16.40
2017-08-31T05:55:25.322Z,14.73
2017-08-31T05:57:52.843Z,18.33
2017-08-31T06:00:21.203Z,12.97
2017-08-31T06:02:48.818Z,15.97
2017-08-31T06:05:16.320Z,18.20
2017-08-31T06:07:43.941Z,21.70
2017-08-31T06:10:11.482Z,24.80
2017-08-31T06:12:38.988Z,20.67
2017-08-31T06:15:06.492Z,15.30
2017-08-31T06:17:34.015Z,15.53
2017-08-31T06:20:01.538Z,16.33
2017-08-31T06:22:29.056Z,15.80
2017-08-31T06:24:56.646Z,14.73
2017-08-31T06:27:24.162Z,15.57
2017-08-31T06:29:51.667Z,12.50
2017-08-31T06:32:19.210Z,15.73
2017-08-31T06:34:46.722Z,11.83
2017-08-31T06:37:14.237Z,15.83
2017-08-31T06:39:41.760Z,15.90
2017-08-31T06:42:09.356Z,17.20
2017-08-31T06:44:36.860Z,13.33
2017-08-31T06:47:04.387Z,13.07
2017-08-31T06:49:31.902Z,15.47
2017-08-31T06:51:59.400Z,16.77
2017-08-31T06:54:27.051Z,14.23
2017-08-31T06:56:54.551Z,15.73
2017-08-31T06:59:22.168Z,17.00
2017-08-31T07:01:49.719Z,17.27
2017-08-31T07:04:17.234Z,13.10
2017-08-31T07:06:44.740Z,11.97
2017-08-31T07:09:13.101Z,11.27
2017-08-31T07:11:40.685Z,10.30
2017-08-31T07:14:08.193Z,10.90
2017-08-31T07:16:35.737Z,12.50
2017-08-31T07:19:03.231Z,8.50
2017-08-31T07:21:31.488Z,9.23
2017-08-31T07:23:59.093Z,11.80
2017-08-31T07:26:26.591Z,7.20
2017-08-31T07:28:54.105Z,11.97
2017-08-31T07:31:21.642Z,9.50
2017-08-31T07:33:49.148Z,7.20
2017-08-31T07:36:16.659Z,9.40
2017-08-31T07:38:44.203Z,11.90
2017-08-31T07:41:11.700Z,10.10
2017-08-31T07:43:39.199Z,12.73
2017-08-31T07:46:06.723Z,8.53
2017-08-31T07:48:34.230Z,6.90
2017-08-31T07:51:01.732Z,8.40
2017-08-31T07:53:29.278Z,10.67
2017-08-31T07:55:56.787Z,9.60
2017-08-31T07:58:24.305Z,6.23
2017-08-31T08:00:51.850Z,10.00
2017-08-31T08:03:19.358Z,7.97
2017-08-31T08:05:46.869Z,14.23
2017-08-31T08:08:16.009Z,7.00
2017-08-31T08:10:43.532Z,6.77
2017-08-31T08:13:11.032Z,8.90
2017-08-31T08:15:38.574Z,8.47
2017-08-31T08:18:06.073Z,8.97
2017-08-31T08:20:33.590Z,12.60
2017-08-31T08:23:01.112Z,6.77
2017-08-31T08:25:28.620Z,6.93
2017-08-31T08:27:56.149Z,6.27
2017-08-31T08:30:23.684Z,7.50
2017-08-31T08:32:51.176Z,7.50
2017-08-31T08:35:18.690Z,7.00
2017-08-31T08:37:46.216Z,7.40
2017-08-31T08:40:13.734Z,7.17
2017-08-31T08:42:41.252Z,6.00
2017-08-31T08:45:09.561Z,14.23
2017-08-31T08:47:37.080Z,5.00
2017-08-31T08:50:04.580Z,5.07
2017-08-31T08:52:32.118Z,5.27
2017-08-31T08:54:59.611Z,5.87
2017-08-31T08:57:27.119Z,6.67
2017-08-31T08:59:54.658Z,7.30
2017-08-31T09:02:22.148Z,6.10
2017-08-31T09:04:49.690Z,6.17
2017-08-31T09:07:17.995Z,13.20
2017-08-31T09:09:45.609Z,6.07
2017-08-31T09:12:13.122Z,6.67
2017-08-31T09:14:40.647Z,6.40
2017-08-31T09:17:08.162Z,6.17
2017-08-31T09:19:35.674Z,5.30
2017-08-31T09:22:03.972Z,7.20
2017-08-31T09:24:31.490Z,13.27
2017-08-31T09:26:58.992Z,8.43
2017-08-31T09:29:26.515Z,12.33
2017-08-31T09:31:54.039Z,10.67
2017-08-31T09:34:21.532Z,11.80
2017-08-31T09:36:49.074Z,9.50
2017-08-31T09:39:16.573Z,8.87
2017-08-31T09:41:44.095Z,10.87
2017-08-31T09:44:11.706Z,9.00
2017-08-31T09:46:39.204Z,9.37
2017-08-31T09:49:06.722Z,11.27
2017-08-31T09:51:34.251Z,12.37
2017-08-31T09:54:02.507Z,12.43
2017-08-31T09:56:30.115Z,13.20
2017-08-31T09:58:57.635Z,10.73
2017-08-31T10:01:25.140Z,8.80
2017-08-31T10:03:52.639Z,12.80
2017-08-31T10:06:20.187Z,8.10
2017-08-31T10:08:47.679Z,7.37
2017-08-31T10:11:15.190Z,6.10
2017-08-31T10:13:42.716Z,8.10
2017-08-31T10:16:10.239Z,8.53
2017-08-31T10:18:37.756Z,7.77
2017-08-31T10:21:05.280Z,6.27
2017-08-31T10:23:32.789Z,6.80
2017-08-31T10:26:00.279Z,6.20
2017-08-31T10:28:27.822Z,7.93
2017-08-31T10:30:55.329Z,9.90
2017-08-31T10:33:22.847Z,11.17
2017-08-31T10:35:50.398Z,8.93
2017-08-31T10:38:17.912Z,5.50
2017-08-31T10:40:45.435Z,4.30
2017-08-31T10:43:12.964Z,4.20
2017-08-31T10:45:40.464Z,2.77
2017-08-31T10:48:07.955Z,2.40
2017-08-31T10:50:35.482Z,2.50
2017-08-31T10:53:02.997Z,2.80
2017-08-31T10:55:30.562Z,5.40
2017-08-31T10:57:58.084Z,3.13
2017-08-31T11:00:26.186Z,5.63
2017-08-31T11:02:53.704Z,4.27
2017-08-31T11:05:21.261Z,3.40
2017-08-31T11:07:48.775Z,3.63
2017-08-31T11:10:16.286Z,3.83
2017-08-31T11:12:43.803Z,3.47
2017-08-31T11:15:12.085Z,2.80
2017-08-31T11:17:39.584Z,3.53
2017-08-31T11:20:07.141Z,3.07
2017-08-31T11:22:34.640Z,4.43
2017-08-31T11:25:02.141Z,4.40
2017-08-31T11:27:29.778Z,3.67
2017-08-31T11:29:57.372Z,3.43
2017-08-31T11:32:24.857Z,7.83
2017-08-31T11:34:52.411Z,4.73
2017-08-31T11:37:19.994Z,8.40
2017-08-31T11:39:48.177Z,3.37
2017-08-31T11:42:15.695Z,3.30
2017-08-31T11:44:43.199Z,2.80
2017-08-31T11:47:10.795Z,5.20
2017-08-31T11:49:38.352Z,2.47
2017-08-31T11:52:05.919Z,4.70
2017-08-31T11:54:33.475Z,2.90
2017-08-31T11:57:01.014Z,2.30
2017-08-31T11:59:28.520Z,2.00
2017-08-31T12:01:56.016Z,1.77
2017-08-31T12:04:23.558Z,2.00
2017-08-31T12:06:51.046Z,1.87
2017-08-31T12:09:18.565Z,2.23
2017-08-31T12:11:46.095Z,2.00
2017-08-31T12:14:13.610Z,2.53
2017-08-31T12:16:41.099Z,1.97
2017-08-31T12:19:08.637Z,3.60
2017-08-31T12:21:36.147Z,3.27
2017-08-31T12:24:03.648Z,2.20
2017-08-31T12:26:31.194Z,1.30
2017-08-31T12:28:58.707Z,1.73
2017-08-31T12:31:26.216Z,1.70
2017-08-31T12:33:53.765Z,1.00
2017-08-31T12:36:22.028Z,3.70
2017-08-31T12:38:49.562Z,1.27
2017-08-31T12:41:17.102Z,2.70
2017-08-31T12:43:44.600Z,2.37
2017-08-31T12:46:12.111Z,1.63
2017-08-31T12:48:39.639Z,2.80
2017-08-31T12:51:07.136Z,1.50
2017-08-31T12:53:34.646Z,1.50
2017-08-31T12:56:02.171Z,1.63
2017-08-31T12:58:29.687Z,2.20
2017-08-31T13:00:57.185Z,5.60
2017-08-31T13:03:24.731Z,3.23
2017-08-31T13:05:52.231Z,5.50
2017-08-31T13:08:19.746Z,2.60
2017-08-31T13:10:47.277Z,3.07
2017-08-31T13:13:14.875Z,2.80
2017-08-31T13:15:42.367Z,3.20
2017-08-31T13:18:09.896Z,1.70
2017-08-31T13:20:37.414Z,2.33
2017-08-31T13:23:04.912Z,2.40
2017-08-31T13:25:32.444Z,4.37
2017-08-31T13:27:59.935Z,1.90
2017-08-31T13:30:27.446Z,2.70
2017-08-31T13:32:54.971Z,2.43
2017-08-31T13:35:22.469Z,2.70
2017-08-31T13:37:49.967Z,2.90
2017-08-31T13:40:17.500Z,2.53
2017-08-31T13:42:45.000Z,2.83
2017-08-31T13:45:12.501Z,2.93
2017-08-31T13:47:40.024Z,2.27
2017-08-31T13:50:07.543Z,3.70
2017-08-31T13:52:35.065Z,5.03
2017-08-31T13:55:02.583Z,5.73
2017-08-31T13:57:30.202Z,2.73
2017-08-31T13:59:57.714Z,3.03
2017-08-31T14:02:25.253Z,1.40
2017-08-31T14:04:52.761Z,1.57
2017-08-31T14:07:20.269Z,1.43
2017-08-31T14:09:47.811Z,1.03
2017-08-31T14:12:15.326Z,0.90
2017-08-31T14:14:42.910Z,2.80
2017-08-31T14:17:10.452Z,1.00
2017-08-31T14:19:37.979Z,0.70
2017-08-31T14:22:05.476Z,1.93
2017-08-31T14:24:32.997Z,1.93
2017-08-31T14:27:00.606Z,1.53
2017-08-31T14:29:28.124Z,7.53
2017-08-31T14:31:55.667Z,4.63
2017-08-31T14:34:23.159Z,1.57
2017-08-31T14:36:50.678Z,0.90
2017-08-31T14:39:18.219Z,1.10
2017-08-31T14:41:45.723Z,3.13
2017-08-31T14:44:14.002Z,1.30
2017-08-31T14:46:41.538Z,1.20
2017-08-31T14:49:09.028Z,2.80
2017-08-31T14:51:36.528Z,1.10
2017-08-31T14:54:04.069Z,1.33
2017-08-31T14:56:31.568Z,1.07
2017-08-31T14:58:59.082Z,1.20
2017-08-31T15:01:26.625Z,3.63
2017-08-31T15:03:54.142Z,1.20
2017-08-31T15:06:21.687Z,1.90
2017-08-31T15:08:49.243Z,2.13
2017-08-31T15:11:16.740Z,4.73
2017-08-31T15:13:44.241Z,5.33
2017-08-31T15:16:11.807Z,2.00
2017-08-31T15:18:39.379Z,4.10
2017-08-31T15:21:06.890Z,6.40
2017-08-31T15:23:34.500Z,3.07
2017-08-31T15:26:02.015Z,2.60
2017-08-31T15:28:29.516Z,15.47
2017-08-31T15:30:57.044Z,2.50
2017-08-31T15:33:24.535Z,3.07
2017-08-31T15:35:52.028Z,4.40
2017-08-31T15:38:19.566Z,3.77
2017-08-31T15:40:47.064Z,3.60
2017-08-31T15:43:14.573Z,2.30
2017-08-31T15:45:42.100Z,2.77
2017-08-31T15:48:09.600Z,7.70
2017-08-31T15:50:37.106Z,5.97
2017-08-31T15:53:05.005Z,6.20
2017-08-31T15:55:32.506Z,4.03
2017-08-31T15:58:00.018Z,3.23
2017-08-31T16:00:27.544Z,5.33
2017-08-31T16:02:55.039Z,6.63
2017-08-31T16:05:22.555Z,9.80
2017-08-31T16:07:50.106Z,4.33
2017-08-31T16:10:17.614Z,4.10
2017-08-31T16:12:45.126Z,9.03
2017-08-31T16:15:12.651Z,9.53
2017-08-31T16:17:40.157Z,4.33
2017-08-31T16:20:07.664Z,9.93
2017-08-31T16:22:35.192Z,3.10
2017-08-31T16:25:02.692Z,3.73
2017-08-31T16:27:30.202Z,5.70
2017-08-31T16:29:57.737Z,2.17
2017-08-31T16:32:25.335Z,5.13
2017-08-31T16:34:52.832Z,2.93
2017-08-31T16:37:20.453Z,5.70
2017-08-31T16:39:47.950Z,1.70
2017-08-31T16:42:15.443Z,4.93
2017-08-31T16:44:42.976Z,3.47
2017-08-31T16:47:10.499Z,6.07
2017-08-31T16:49:37.991Z,3.57
2017-08-31T16:52:05.527Z,1.40
2017-08-31T16:54:33.028Z,2.53
2017-08-31T16:57:00.541Z,1.60
2017-08-31T16:59:28.059Z,1.90
2017-08-31T17:01:55.569Z,3.70
2017-08-31T17:04:23.064Z,4.77
2017-08-31T17:06:50.602Z,3.67
2017-08-31T17:09:18.118Z,2.63
2017-08-31T17:11:45.630Z,2.17
2017-08-31T17:14:13.160Z,1.77
2017-08-31T17:16:40.668Z,3.13
2017-08-31T17:19:08.173Z,4.07
2017-08-31T17:21:35.718Z,4.20
2017-08-31T17:24:03.228Z,2.00
2017-08-31T17:26:30.732Z,4.20
2017-08-31T17:28:58.380Z,2.13
2017-08-31T17:31:25.894Z,3.63
2017-08-31T17:33:53.410Z,4.77
2017-08-31T17:36:20.955Z,6.43
2017-08-31T17:38:48.512Z,1.73
2017-08-31T17:41:16.013Z,4.20
2017-08-31T17:43:43.539Z,4.30
2017-08-31T17:46:11.051Z,7.70
2017-08-31T17:48:38.570Z,9.03
2017-08-31T17:51:06.112Z,4.13
2017-08-31T17:53:33.615Z,5.60
2017-08-31T17:56:01.129Z,4.47
2017-08-31T17:58:28.652Z,7.07
2017-08-31T18:00:56.917Z,2.90
2017-08-31T18:03:24.513Z,4.70
2017-08-31T18:05:52.036Z,5.80
2017-08-31T18:08:19.528Z,3.93
2017-08-31T18:10:47.027Z,13.53
2017-08-31T18:13:14.556Z,6.17
2017-08-31T18:15:42.051Z,3.67
2017-08-31T18:18:09.551Z,6.13
2017-08-31T18:20:37.076Z,9.60
2017-08-31T18:23:04.590Z,5.60
2017-08-31T18:25:32.079Z,5.90
2017-08-31T18:27:59.608Z,5.33
2017-08-31T18:30:27.124Z,14.00
2017-08-31T18:32:54.638Z,4.47
2017-08-31T18:35:22.165Z,7.80
2017-08-31T18:37:49.727Z,5.40
2017-08-31T18:40:17.226Z,12.23
2017-08-31T18:42:44.846Z,8.37
2017-08-31T18:45:12.354Z,8.10
2017-08-31T18:47:39.865Z,5.97
2017-08-31T18:50:07.402Z,12.33
2017-08-31T18:52:34.904Z,6.33
2017-08-31T18:55:02.400Z,7.83
2017-08-31T18:57:29.937Z,8.93
2017-08-31T18:59:57.460Z,9.80
2017-08-31T19:02:25.088Z,8.83
2017-08-31T19:04:52.630Z,8.67
2017-08-31T19:07:20.141Z,13.33
2017-08-31T19:09:47.654Z,8.27
2017-08-31T19:12:15.198Z,7.83
2017-08-31T19:14:42.715Z,14.43
2017-08-31T19:17:10.276Z,11.27
2017-08-31T19:19:37.819Z,12.50
2017-08-31T19:22:05.324Z,8.93
2017-08-31T19:24:32.819Z,9.80
2017-08-31T19:27:01.130Z,14.60
2017-08-31T19:29:28.680Z,10.10
2017-08-31T19:31:56.198Z,10.50
2017-08-31T19:34:23.746Z,13.40
2017-08-31T19:36:51.259Z,12.90
2017-08-31T19:39:18.767Z,12.63
2017-08-31T19:41:46.313Z,13.23
2017-08-31T19:44:13.826Z,12.47
2017-08-31T19:46:41.388Z,12.13
2017-08-31T19:49:08.920Z,13.90
2017-08-31T19:51:36.454Z,9.73
2017-08-31T19:54:03.951Z,11.87
2017-08-31T19:56:31.507Z,19.10
2017-08-31T19:58:59.015Z,10.90
2017-08-31T20:01:26.516Z,15.53
2017-08-31T20:03:54.054Z,13.37
2017-08-31T20:06:21.578Z,18.00
2017-08-31T20:08:49.101Z,12.07
2017-08-31T20:11:16.650Z,18.00
2017-08-31T20:13:44.195Z,12.90
2017-08-31T20:16:11.719Z,14.37
2017-08-31T20:18:39.258Z,15.10
2017-08-31T20:21:06.787Z,13.43
2017-08-31T20:23:34.309Z,11.87
2017-08-31T20:26:01.843Z,16.83
2017-08-31T20:28:29.352Z,18.10
2017-08-31T20:30:56.873Z,15.30
2017-08-31T20:33:24.418Z,18.93
2017-08-31T20:35:51.938Z,17.67
2017-08-31T20:38:19.464Z,14.17
2017-08-31T20:40:47.009Z,15.30
2017-08-31T20:43:14.529Z,21.77
2017-08-31T20:45:42.031Z,14.00
2017-08-31T20:48:09.577Z,18.93
2017-08-31T20:50:37.098Z,18.03
2017-08-31T20:53:04.618Z,13.47
2017-08-31T20:55:32.166Z,17.97
2017-08-31T20:57:59.675Z,12.63
2017-08-31T21:00:27.198Z,23.53
2017-08-31T21:02:54.746Z,17.60
2017-08-31T21:05:22.308Z,15.97
2017-08-31T21:07:49.830Z,19.87
2017-08-31T21:10:17.363Z,14.87
2017-08-31T21:12:46.369Z,17.70
2017-08-31T21:15:13.894Z,21.03
2017-08-31T21:17:41.423Z,20.30
2017-08-31T21:20:08.946Z,17.80
2017-08-31T21:22:36.465Z,23.70
2017-08-31T21:25:04.014Z,16.53
2017-08-31T21:27:31.516Z,21.40
2017-08-31T21:29:59.041Z,19.53
2017-08-31T21:32:26.585Z,20.70
2017-08-31T21:34:54.111Z,18.70
2017-08-31T21:37:21.661Z,20.90
2017-08-31T21:39:49.185Z,18.47
2017-08-31T21:42:16.705Z,24.50
2017-08-31T21:44:44.236Z,27.70
2017-08-31T21:47:11.739Z,20.90
2017-08-31T21:49:39.254Z,20.40
2017-08-31T21:52:06.802Z,17.73
2017-08-31T21:54:34.326Z,21.80
2017-08-31T21:57:01.870Z,21.10
2017-08-31T21:59:29.380Z,21.53
2017-08-31T22:01:56.912Z,21.23
2017-08-31T22:04:24.420Z,27.30
2017-08-31T22:06:51.924Z,21.50
2017-08-31T22:09:19.460Z,22.77
2017-08-31T22:11:46.986Z,26.23
2017-08-31T22:14:15.270Z,19.40
2017-08-31T22:16:43.674Z,22.37
2017-08-31T22:19:11.956Z,23.63
2017-08-31T22:21:39.459Z,25.57
2017-08-31T22:24:07.007Z,26.60
2017-08-31T22:26:34.534Z,29.03
2017-08-31T22:29:02.037Z,23.23
2017-08-31T22:31:29.575Z,35.73
2017-08-31T22:33:57.080Z,28.70
2017-08-31T22:36:24.602Z,25.07
2017-08-31T22:38:52.135Z,24.40
2017-08-31T22:41:19.651Z,25.37
2017-08-31T22:43:47.172Z,27.00
2017-08-31T22:46:14.731Z,35.23
2017-08-31T22:48:42.254Z,29.50
2017-08-31T22:51:09.755Z,22.60
2017-08-31T22:53:37.280Z,35.17
2017-08-31T22:56:04.802Z,22.47
2017-08-31T22:58:43.191Z,28.50
2017-08-31T23:01:10.801Z,32.67
2017-08-31T23:03:38.308Z,35.90
2017-08-31T23:06:05.836Z,34.93
2017-08-31T23:08:33.361Z,30.73
2017-08-31T23:11:00.891Z,34.70
2017-08-31T23:13:28.422Z,26.17
2017-08-31T23:15:55.928Z,24.77
2017-08-31T23:18:23.506Z,27.10
2017-08-31T23:20:51.024Z,26.63
2017-08-31T23:23:18.560Z,30.87
2017-08-31T23:25:46.092Z,29.57
2017-08-31T23:28:13.642Z,29.40
2017-08-31T23:30:41.162Z,24.20
2017-08-31T23:33:08.682Z,27.10
2017-08-31T23:35:36.320Z,27.37
2017-08-31T23:38:03.846Z,30.30
2017-08-31T23:40:32.166Z,35.00
2017-08-31T23:42:59.712Z,33.27
2017-08-31T23:45:27.233Z,31.97
2017-08-31T23:47:55.532Z,34.47
2017-08-31T23:50:23.061Z,40.20
2017-08-31T23:52:50.563Z,34.90
2017-08-31T23:55:18.090Z,37.20
2017-08-31T23:57:46.373Z,29.50
